Time;durP1;ratioP1;P1;durP2;ratioP2;P2;SDS_P1;SDS_P2;PMS_P1;PMS_P2;Temp;Humidity;BMP_temperature;BMP_pressure;BME280_temperature;BME280_humidity;BME280_pressure;Samples;Min_cycle;Max_cycle;Signal;HPM_P1;HPM_P2
2022/07/17 00:02:15;;;;;;;60.38;50.13;;;24.90;49.50;;;;;;4999967;27;101388;-57
2022/07/17 00:04:40;;;;;;;60.15;50.13;;;24.90;49.50;;;;;;5010024;27;96509;-55
2022/07/17 00:07:06;;;;;;;61.10;50.35;;;24.90;49.60;;;;;;4997661;27;95609;-58
2022/07/17 00:09:32;;;;;;;60.03;50.35;;;24.90;49.60;;;;;;4985115;27;96309;-56
2022/07/17 00:11:57;;;;;;;59.55;50.17;;;24.90;49.60;;;;;;4988399;27;97199;-57
2022/07/17 00:14:23;;;;;;;59.72;50.13;;;24.90;49.60;;;;;;5004409;27;95348;-58
2022/07/17 00:16:49;;;;;;;60.33;50.00;;;24.90;49.70;;;;;;4993341;27;96405;-58
2022/07/17 00:19:15;;;;;;;60.40;50.20;;;24.90;49.80;;;;;;4992818;27;95926;-58
2022/07/17 00:21:42;;;;;;;59.92;50.13;;;24.90;49.80;;;;;;4998750;27;96650;-58
2022/07/17 00:24:08;;;;;;;60.03;50.15;;;24.80;49.80;;;;;;4993383;27;99219;-58
2022/07/17 00:26:34;;;;;;;60.03;50.08;;;24.80;49.80;;;;;;4999943;27;100344;-58
2022/07/17 00:28:59;;;;;;;59.80;50.15;;;24.80;49.80;;;;;;4997070;27;96617;-56
2022/07/17 00:31:25;;;;;;;60.80;50.13;;;24.80;49.90;;;;;;4999095;27;97630;-58
2022/07/17 00:33:51;;;;;;;60.80;50.20;;;24.80;50.00;;;;;;5006799;27;98133;-57
2022/07/17 00:36:16;;;;;;;60.22;50.13;;;24.80;50.00;;;;;;5002195;27;99413;-57
2022/07/17 00:38:42;;;;;;;59.45;50.05;;;24.80;50.00;;;;;;5004973;27;95955;-58
2022/07/17 00:41:08;;;;;;;59.58;50.05;;;24.80;50.10;;;;;;5001646;27;97249;-58
2022/07/17 00:43:33;;;;;;;60.10;50.20;;;24.80;50.10;;;;;;4987969;27;95024;-58
2022/07/17 00:46:01;;;;;;;60.40;49.95;;;24.80;50.10;;;;;;5010390;27;97764;-56
2022/07/17 00:48:27;;;;;;;59.33;49.85;;;24.80;50.20;;;;;;4996991;27;95888;-58
2022/07/17 00:50:53;;;;;;;59.28;49.85;;;24.80;50.30;;;;;;4997041;27;98608;-58
2022/07/17 00:53:19;;;;;;;59.83;50.22;;;24.80;50.30;;;;;;4996153;27;100215;-56
2022/07/17 00:55:49;;;;;;;60.95;50.28;;;24.80;50.30;;;;;;4993967;27;96814;-55
2022/07/17 00:58:21;;;;;;;59.60;49.92;;;24.70;50.20;;;;;;5010172;27;99202;-58
2022/07/17 01:00:49;;;;;;;59.75;49.78;;;24.70;50.40;;;;;;5009547;27;101284;-57
2022/07/17 01:03:15;;;;;;;59.03;49.83;;;24.80;50.40;;;;;;5009621;27;95041;-58
2022/07/17 01:05:41;;;;;;;60.33;50.13;;;24.70;50.40;;;;;;4996314;27;97162;-54
2022/07/17 01:08:07;;;;;;;59.80;50.00;;;24.70;50.40;;;;;;5006680;27;95017;-58
2022/07/17 01:10:34;;;;;;;59.35;49.95;;;24.70;50.50;;;;;;5010985;27;99113;-56
2022/07/17 01:13:01;;;;;;;59.40;50.05;;;24.70;50.60;;;;;;4977263;27;96538;-57
2022/07/17 01:15:26;;;;;;;59.65;50.05;;;24.60;50.50;;;;;;4997515;27;100010;-56
2022/07/17 01:17:52;;;;;;;59.88;50.08;;;24.70;50.60;;;;;;4995195;27;96300;-57
2022/07/17 01:20:18;;;;;;;60.50;49.88;;;24.60;50.60;;;;;;5012501;27;95575;-58
2022/07/17 01:22:47;;;;;;;60.22;49.90;;;24.60;50.60;;;;;;5009814;27;95340;-58
2022/07/17 01:25:13;;;;;;;60.70;50.15;;;24.60;50.60;;;;;;5000428;27;97609;-58
2022/07/17 01:27:40;;;;;;;59.47;49.90;;;24.60;50.60;;;;;;4992110;27;95766;-56
2022/07/17 01:30:07;;;;;;;59.35;49.85;;;24.60;50.80;;;;;;4989601;27;98421;-55
2022/07/17 01:32:38;;;;;;;59.90;50.22;;;24.50;50.80;;;;;;4994297;27;95007;-56
2022/07/17 01:35:06;;;;;;;59.55;49.83;;;24.60;50.90;;;;;;4996796;27;98718;-56
2022/07/17 01:37:32;;;;;;;59.25;49.95;;;24.60;50.90;;;;;;4999269;27;94895;-56
2022/07/17 01:39:58;;;;;;;59.40;49.97;;;24.50;51.50;;;;;;4999743;27;98254;-57
2022/07/17 01:42:26;;;;;;;59.17;50.03;;;24.50;50.80;;;;;;5002337;27;95664;-57
2022/07/17 01:44:53;;;;;;;59.45;50.08;;;24.50;50.80;;;;;;4999541;27;96774;-54
2022/07/17 01:47:18;;;;;;;59.65;50.15;;;24.50;50.90;;;;;;5013185;27;98952;-57
2022/07/17 01:49:49;;;;;;;59.47;49.95;;;24.50;50.90;;;;;;5000827;27;95739;-58
2022/07/17 01:52:15;;;;;;;59.50;49.92;;;24.50;50.90;;;;;;5007796;27;95806;-58
2022/07/17 01:54:41;;;;;;;58.95;49.80;;;24.50;51.00;;;;;;5001502;27;95147;-58
2022/07/17 01:57:08;;;;;;;59.33;49.80;;;24.50;51.10;;;;;;5012973;27;95120;-58
2022/07/17 01:59:33;;;;;;;59.50;49.90;;;24.40;51.20;;;;;;5001499;27;94815;-58
2022/07/17 02:01:59;;;;;;;59.35;50.05;;;24.40;51.20;;;;;;4997704;27;95655;-58
2022/07/17 02:04:24;;;;;;;60.53;49.95;;;24.40;51.20;;;;;;4997051;27;97549;-58
2022/07/17 02:06:53;;;;;;;59.55;49.90;;;24.40;51.20;;;;;;4996985;27;95576;-58
2022/07/17 02:09:19;;;;;;;59.47;49.95;;;24.30;51.20;;;;;;5006004;27;99489;-56
2022/07/17 02:11:44;;;;;;;59.53;49.78;;;24.30;51.30;;;;;;4998795;27;95416;-59
2022/07/17 02:14:10;;;;;;;59.45;50.10;;;24.30;51.30;;;;;;5002611;27;95623;-59
2022/07/17 02:16:36;;;;;;;59.25;49.75;;;24.30;51.40;;;;;;5010887;27;95028;-56
2022/07/17 02:19:02;;;;;;;59.10;49.75;;;24.30;51.40;;;;;;4995807;27;95611;-58
2022/07/17 02:21:27;;;;;;;59.38;50.05;;;24.30;51.40;;;;;;5004429;27;95416;-58
2022/07/17 02:23:53;;;;;;;59.22;49.70;;;24.20;51.40;;;;;;4993033;27;100586;-58
2022/07/17 02:26:19;;;;;;;59.22;49.80;;;24.30;51.50;;;;;;4995401;27;95435;-58
2022/07/17 02:28:44;;;;;;;59.17;49.88;;;24.20;51.40;;;;;;4998937;27;98111;-58
2022/07/17 02:31:10;;;;;;;59.58;49.78;;;24.20;51.50;;;;;;5003265;27;96514;-58
2022/07/17 02:33:35;;;;;;;59.13;49.83;;;24.20;51.60;;;;;;4988716;27;98019;-58
2022/07/17 02:36:01;;;;;;;59.13;49.80;;;24.20;51.60;;;;;;4994281;27;98207;-58
2022/07/17 02:38:27;;;;;;;59.38;49.63;;;24.20;51.60;;;;;;4998620;27;96414;-58
2022/07/17 02:40:53;;;;;;;59.40;49.80;;;24.20;51.60;;;;;;5008799;27;96180;-58
2022/07/17 02:43:19;;;;;;;58.45;49.63;;;24.20;51.60;;;;;;4994858;27;96843;-58
2022/07/17 02:45:44;;;;;;;59.25;49.80;;;24.20;51.60;;;;;;5002592;27;95130;-57
2022/07/17 02:48:10;;;;;;;59.10;49.78;;;24.10;51.60;;;;;;5009483;27;95438;-58
2022/07/17 02:50:35;;;;;;;58.80;49.78;;;24.10;51.70;;;;;;4995740;27;97644;-58
2022/07/17 02:53:01;;;;;;;59.25;49.90;;;24.10;51.80;;;;;;5006538;27;101132;-58
2022/07/17 02:55:27;;;;;;;58.83;49.85;;;24.00;51.80;;;;;;5004027;27;97515;-58
2022/07/17 02:57:53;;;;;;;58.65;49.63;;;24.00;51.80;;;;;;4998504;27;96329;-58
2022/07/17 03:00:20;;;;;;;58.92;49.80;;;24.00;51.90;;;;;;5007327;27;95784;-58
2022/07/17 03:02:46;;;;;;;59.00;49.85;;;24.10;51.90;;;;;;4997188;27;95251;-56
2022/07/17 03:05:14;;;;;;;58.97;49.78;;;24.00;51.90;;;;;;5002884;27;95766;-58
2022/07/17 03:07:39;;;;;;;58.78;49.72;;;24.00;52.60;;;;;;5000484;27;96760;-59
2022/07/17 03:10:06;;;;;;;58.63;49.72;;;24.00;52.10;;;;;;5003289;27;93922;-58
2022/07/17 03:12:32;;;;;;;59.35;49.72;;;24.00;52.10;;;;;;5005744;27;96448;-58
2022/07/17 03:14:58;;;;;;;58.72;49.75;;;24.00;52.10;;;;;;4989410;27;96467;-57
2022/07/17 03:17:23;;;;;;;59.47;49.78;;;23.90;52.00;;;;;;5003379;27;97870;-58
2022/07/17 03:19:49;;;;;;;59.42;49.60;;;23.90;52.00;;;;;;5000882;27;96050;-58
2022/07/17 03:22:15;;;;;;;58.72;49.65;;;23.90;52.10;;;;;;4997731;27;95597;-56
2022/07/17 03:24:41;;;;;;;58.92;49.85;;;23.90;52.20;;;;;;5008118;27;97008;-58
2022/07/17 03:27:07;;;;;;;58.97;49.67;;;23.90;52.20;;;;;;4996905;27;95163;-59
2022/07/17 03:29:33;;;;;;;59.25;49.92;;;23.90;52.20;;;;;;5000486;27;99379;-57
2022/07/17 03:31:58;;;;;;;58.65;49.80;;;23.90;52.20;;;;;;4967991;27;96102;-58
2022/07/17 03:34:24;;;;;;;59.25;49.83;;;23.90;52.20;;;;;;4996962;27;94917;-57
2022/07/17 03:36:50;;;;;;;58.20;49.55;;;23.80;52.20;;;;;;4990442;27;95292;-58
2022/07/17 03:39:16;;;;;;;59.83;49.75;;;23.80;52.20;;;;;;4999992;27;95831;-59
2022/07/17 03:41:41;;;;;;;58.95;49.70;;;23.80;52.20;;;;;;4990167;27;98319;-58
2022/07/17 03:44:07;;;;;;;58.28;49.45;;;23.70;52.40;;;;;;5002886;27;96553;-58
2022/07/17 03:46:33;;;;;;;58.80;49.65;;;23.70;52.40;;;;;;4999620;27;95266;-58
2022/07/17 03:48:59;;;;;;;58.30;49.67;;;23.70;52.40;;;;;;5007449;27;95387;-57
2022/07/17 03:51:24;;;;;;;58.72;49.83;;;23.70;52.40;;;;;;5010614;27;98213;-57
2022/07/17 03:53:50;;;;;;;58.40;49.58;;;23.70;52.60;;;;;;5000233;27;95771;-56
2022/07/17 03:56:16;;;;;;;58.88;49.67;;;23.60;52.70;;;;;;5001773;27;96737;-58
2022/07/17 03:58:41;;;;;;;60.15;49.55;;;23.60;52.80;;;;;;5000087;27;99060;-58
2022/07/17 04:01:07;;;;;;;58.45;49.65;;;23.60;52.80;;;;;;4997197;27;100102;-58
2022/07/17 04:03:33;;;;;;;58.90;49.65;;;23.50;52.90;;;;;;5007570;27;95280;-57
2022/07/17 04:05:58;;;;;;;58.70;49.65;;;23.50;53.00;;;;;;4999291;27;98593;-58
2022/07/17 04:08:24;;;;;;;58.17;49.40;;;23.50;53.00;;;;;;4995997;27;99376;-58
2022/07/17 04:10:50;;;;;;;59.40;49.65;;;23.50;53.00;;;;;;4998367;27;95634;-56
2022/07/17 04:13:16;;;;;;;58.47;49.65;;;23.50;53.10;;;;;;4991622;27;96211;-55
2022/07/17 04:15:59;;;;;;;59.42;49.45;;;23.50;53.10;;;;;;5004421;27;95117;-58
2022/07/17 04:18:27;;;;;;;58.45;49.55;;;23.50;53.20;;;;;;5009510;27;97578;-57
2022/07/17 04:20:55;;;;;;;58.33;49.55;;;23.40;53.20;;;;;;4998357;27;95677;-57
2022/07/17 04:23:20;;;;;;;58.22;49.38;;;23.40;53.20;;;;;;5008825;27;96661;-58
2022/07/17 04:25:46;;;;;;;59.05;49.67;;;23.40;53.20;;;;;;4999535;27;97402;-58
2022/07/17 04:28:12;;;;;;;58.60;49.78;;;23.40;53.20;;;;;;4994541;27;95482;-57
2022/07/17 04:30:39;;;;;;;58.22;49.55;;;23.40;53.20;;;;;;5000661;27;97985;-59
2022/07/17 04:33:04;;;;;;;58.38;49.75;;;23.40;53.20;;;;;;5004361;27;96341;-57
2022/07/17 04:35:30;;;;;;;58.25;49.40;;;23.50;53.10;;;;;;5007085;27;96561;-58
2022/07/17 04:37:56;;;;;;;58.00;49.40;;;23.40;53.20;;;;;;5000671;27;95535;-58
2022/07/17 04:40:22;;;;;;;58.60;49.40;;;23.40;53.30;;;;;;5004780;27;99559;-58
2022/07/17 04:42:47;;;;;;;59.15;49.60;;;23.40;53.10;;;;;;5001136;27;95802;-58
2022/07/17 04:45:13;;;;;;;58.17;49.42;;;23.40;53.20;;;;;;5012881;27;95459;-59
2022/07/17 04:47:40;;;;;;;59.13;49.70;;;23.40;53.20;;;;;;5015045;27;95019;-59
2022/07/17 04:50:06;;;;;;;58.47;49.58;;;23.50;53.10;;;;;;5007667;27;100261;-57
2022/07/17 04:52:32;;;;;;;58.03;49.35;;;23.40;53.70;;;;;;5009733;27;96710;-58
2022/07/17 04:54:58;;;;;;;58.60;49.85;;;23.40;53.20;;;;;;4982463;27;98714;-58
2022/07/17 04:57:23;;;;;;;59.10;49.60;;;23.40;53.20;;;;;;4995149;27;100965;-58
2022/07/17 04:59:49;;;;;;;58.25;49.58;;;23.40;53.20;;;;;;5000059;27;102252;-58
2022/07/17 05:02:14;;;;;;;58.85;49.55;;;23.40;53.30;;;;;;4992085;27;95916;-58
2022/07/17 05:04:40;;;;;;;58.95;49.60;;;23.40;53.20;;;;;;4997991;27;94921;-57
2022/07/17 05:07:06;;;;;;;59.05;49.63;;;23.40;53.30;;;;;;5002302;27;96869;-58
2022/07/17 05:09:32;;;;;;;58.47;49.33;;;23.40;53.20;;;;;;4998007;27;96887;-58
2022/07/17 05:11:57;;;;;;;58.33;49.55;;;23.40;53.30;;;;;;5000700;27;97220;-58
2022/07/17 05:14:23;;;;;;;58.40;49.70;;;23.40;53.20;;;;;;4998489;27;100390;-58
2022/07/17 05:16:49;;;;;;;58.17;49.45;;;23.40;53.20;;;;;;5006074;27;95745;-58
2022/07/17 05:19:15;;;;;;;58.95;49.65;;;23.40;53.20;;;;;;4996425;27;96924;-58
2022/07/17 05:21:40;;;;;;;58.20;49.70;;;23.40;53.10;;;;;;4997580;27;96181;-58
2022/07/17 05:24:06;;;;;;;58.42;49.55;;;23.40;53.20;;;;;;5007627;27;95448;-59
2022/07/17 05:26:32;;;;;;;58.28;49.55;;;23.40;53.10;;;;;;5006812;27;95318;-58
2022/07/17 05:28:57;;;;;;;58.65;49.58;;;23.50;53.00;;;;;;5002762;27;95368;-59
2022/07/17 05:31:23;;;;;;;58.67;49.65;;;23.50;52.90;;;;;;5007288;27;96108;-58
2022/07/17 05:33:49;;;;;;;60.10;49.65;;;23.50;52.80;;;;;;5011560;27;100249;-58
2022/07/17 05:36:14;;;;;;;58.70;49.65;;;23.50;52.70;;;;;;4995856;27;97348;-57
2022/07/17 05:38:40;;;;;;;59.05;49.55;;;23.60;53.10;;;;;;4987720;27;97014;-58
2022/07/17 05:41:05;;;;;;;60.03;49.40;;;23.70;52.40;;;;;;5009255;27;95663;-57
2022/07/17 05:43:31;;;;;;;59.50;49.55;;;23.70;52.20;;;;;;5008713;27;97980;-58
2022/07/17 05:45:57;;;;;;;59.78;49.72;;;23.70;52.00;;;;;;4999105;27;96902;-58
2022/07/17 05:48:24;;;;;;;58.50;49.65;;;23.80;51.90;;;;;;4998877;27;95751;-58
2022/07/17 05:50:49;;;;;;;58.63;49.58;;;23.90;51.80;;;;;;5007867;27;100705;-55
2022/07/17 05:53:15;;;;;;;58.30;49.55;;;23.90;51.70;;;;;;5002789;27;95561;-58
2022/07/17 05:55:41;;;;;;;58.67;49.55;;;23.90;51.70;;;;;;5007218;27;95723;-58
2022/07/17 05:58:07;;;;;;;58.35;49.50;;;24.00;51.60;;;;;;5005380;27;96424;-56
2022/07/17 06:00:34;;;;;;;58.70;49.60;;;24.00;51.60;;;;;;4997792;27;95850;-58
2022/07/17 06:03:00;;;;;;;59.25;50.05;;;24.00;51.50;;;;;;5008033;27;96866;-58
2022/07/17 06:05:26;;;;;;;58.58;49.65;;;24.00;51.40;;;;;;4986827;27;95183;-55
2022/07/17 06:07:53;;;;;;;58.70;49.53;;;24.00;51.40;;;;;;5001935;27;96685;-56
2022/07/17 06:10:19;;;;;;;58.67;49.63;;;24.00;51.30;;;;;;5003387;27;96744;-59
2022/07/17 06:12:44;;;;;;;59.65;49.80;;;24.00;51.20;;;;;;5006556;27;96504;-57
2022/07/17 06:15:11;;;;;;;58.60;49.70;;;24.00;51.20;;;;;;5001700;27;97535;-57
2022/07/17 06:17:36;;;;;;;58.97;50.00;;;24.00;51.20;;;;;;5002610;27;97179;-58
2022/07/17 06:20:03;;;;;;;59.33;49.55;;;24.00;51.80;;;;;;5008460;27;95826;-56
2022/07/17 06:22:29;;;;;;;58.80;49.83;;;24.10;51.20;;;;;;5008547;27;95697;-58
2022/07/17 06:24:55;;;;;;;59.80;49.65;;;24.10;51.20;;;;;;4997606;27;95026;-57
2022/07/17 06:27:21;;;;;;;58.53;49.65;;;24.10;51.10;;;;;;5007208;27;96541;-58
2022/07/17 06:29:47;;;;;;;59.63;49.75;;;24.10;51.10;;;;;;5002640;27;95110;-54
2022/07/17 06:32:13;;;;;;;58.75;49.72;;;24.10;51.00;;;;;;5000381;27;96016;-57
2022/07/17 06:34:38;;;;;;;58.70;49.83;;;24.10;51.00;;;;;;5013138;27;95251;-58
2022/07/17 06:37:04;;;;;;;58.85;49.72;;;24.10;51.00;;;;;;5014893;27;98194;-58
2022/07/17 06:39:30;;;;;;;59.30;49.78;;;24.10;51.00;;;;;;5020151;27;96960;-58
2022/07/17 06:41:55;;;;;;;58.60;49.70;;;24.10;51.00;;;;;;4999944;27;96078;-57
2022/07/17 06:44:21;;;;;;;58.38;49.53;;;24.10;51.00;;;;;;5003941;27;96482;-56
2022/07/17 06:46:47;;;;;;;59.80;49.65;;;24.10;51.00;;;;;;5004908;27;99796;-58
2022/07/17 06:49:12;;;;;;;58.53;49.75;;;24.10;51.00;;;;;;5001607;27;95589;-58
2022/07/17 06:51:38;;;;;;;59.03;49.83;;;24.10;50.90;;;;;;4999792;27;95804;-57
2022/07/17 06:54:04;;;;;;;59.08;49.95;;;24.10;50.90;;;;;;5010274;27;95642;-58
2022/07/17 06:56:29;;;;;;;59.22;49.95;;;24.20;50.90;;;;;;4995286;27;96273;-55
2022/07/17 06:58:55;;;;;;;60.10;49.92;;;24.20;50.90;;;;;;5009307;27;97405;-58
2022/07/17 07:01:21;;;;;;;59.30;50.15;;;24.20;50.90;;;;;;5004428;27;94929;-58
2022/07/17 07:03:46;;;;;;;60.03;49.95;;;24.20;50.80;;;;;;5005868;27;96467;-57
2022/07/17 07:06:13;;;;;;;59.03;50.00;;;24.20;50.80;;;;;;5000691;27;97810;-58
2022/07/17 07:08:39;;;;;;;59.20;49.83;;;24.20;50.70;;;;;;5005867;27;96346;-58
2022/07/17 07:11:05;;;;;;;59.10;49.95;;;24.30;50.70;;;;;;4990297;27;97468;-57
2022/07/17 07:13:30;;;;;;;60.88;50.03;;;24.20;50.70;;;;;;5009729;27;94782;-55
2022/07/17 07:15:56;;;;;;;58.72;49.63;;;24.30;50.60;;;;;;5006328;27;95612;-56
2022/07/17 07:18:22;;;;;;;59.15;49.72;;;24.40;50.60;;;;;;5007285;27;96802;-58
2022/07/17 07:20:48;;;;;;;59.42;49.83;;;24.40;50.60;;;;;;5014062;27;96907;-58
2022/07/17 07:23:14;;;;;;;59.83;50.05;;;24.40;50.60;;;;;;5004023;27;102344;-55
2022/07/17 07:25:40;;;;;;;60.15;49.92;;;24.40;50.60;;;;;;5000369;27;97100;-58
2022/07/17 07:28:06;;;;;;;60.88;49.90;;;24.40;50.50;;;;;;5000980;27;96443;-54
2022/07/17 07:30:32;;;;;;;59.42;49.70;;;24.40;50.60;;;;;;5008932;27;96886;-58
2022/07/17 07:32:58;;;;;;;59.17;49.90;;;24.40;50.60;;;;;;5009688;27;100664;-58
2022/07/17 07:35:24;;;;;;;59.13;49.92;;;24.40;50.50;;;;;;4997302;27;96450;-58
2022/07/17 07:37:49;;;;;;;59.63;50.05;;;24.40;50.40;;;;;;5002521;27;95101;-57
2022/07/17 07:40:15;;;;;;;60.55;50.03;;;24.40;50.40;;;;;;5005211;27;97179;-58
2022/07/17 07:42:41;;;;;;;59.63;49.97;;;24.40;50.40;;;;;;5006894;27;98246;-58
2022/07/17 07:45:08;;;;;;;59.83;50.03;;;24.50;50.50;;;;;;4992423;27;102021;-59
2022/07/17 07:47:44;;;;;;;59.08;49.95;;;24.50;50.50;;;;;;5001201;27;96834;-57
2022/07/17 07:50:11;;;;;;;59.83;49.85;;;24.50;50.40;;;;;;5007800;27;95593;-59
2022/07/17 07:52:37;;;;;;;59.00;49.85;;;24.50;50.30;;;;;;5002643;27;95848;-58
2022/07/17 07:55:04;;;;;;;59.60;50.05;;;24.50;50.20;;;;;;5009672;27;95810;-58
2022/07/17 07:57:30;;;;;;;59.50;50.00;;;24.50;50.20;;;;;;5000984;27;96611;-58
2022/07/17 07:59:55;;;;;;;60.15;50.00;;;24.50;50.30;;;;;;5005431;27;95145;-58
2022/07/17 08:02:21;;;;;;;61.25;50.25;;;24.60;50.20;;;;;;5004169;27;94511;-58
2022/07/17 08:04:46;;;;;;;60.67;50.25;;;24.60;50.10;;;;;;5005849;27;96208;-58
2022/07/17 08:07:12;;;;;;;60.80;50.05;;;24.60;50.00;;;;;;5010239;27;95630;-58
2022/07/17 08:09:38;;;;;;;59.40;49.95;;;24.70;50.00;;;;;;5001256;27;96419;-56
2022/07/17 08:12:03;;;;;;;59.63;50.05;;;24.70;49.90;;;;;;5004192;27;95077;-58
2022/07/17 08:14:29;;;;;;;59.85;50.20;;;24.80;49.90;;;;;;4999117;27;96585;-57
2022/07/17 08:16:55;;;;;;;60.05;50.17;;;24.70;49.90;;;;;;5002889;27;95892;-59
2022/07/17 08:19:20;;;;;;;59.88;50.00;;;24.80;49.90;;;;;;4998763;27;96187;-57
2022/07/17 08:21:46;;;;;;;59.65;50.05;;;24.80;49.90;;;;;;4997401;27;94994;-58
2022/07/17 08:24:12;;;;;;;59.80;50.03;;;24.80;49.70;;;;;;5002295;27;95414;-58
2022/07/17 08:26:37;;;;;;;59.78;50.03;;;24.90;49.80;;;;;;5011204;27;94747;-58
2022/07/17 08:29:03;;;;;;;59.58;50.15;;;24.90;49.70;;;;;;5002927;27;101736;-58
2022/07/17 08:31:29;;;;;;;59.85;50.00;;;24.90;49.70;;;;;;5012262;27;96168;-57
2022/07/17 08:33:55;;;;;;;60.20;50.22;;;24.90;49.50;;;;;;5005202;27;96442;-58
2022/07/17 08:36:21;;;;;;;60.47;50.35;;;25.00;49.50;;;;;;5007539;27;94986;-58
2022/07/17 08:38:46;;;;;;;60.00;50.28;;;25.00;49.40;;;;;;4997094;27;95774;-58
2022/07/17 08:41:16;;;;;;;60.38;50.35;;;25.00;49.40;;;;;;4998832;27;96265;-56
2022/07/17 08:43:42;;;;;;;60.40;50.33;;;25.00;49.50;;;;;;5004238;27;101486;-53
2022/07/17 08:46:11;;;;;;;66.28;50.83;;;25.00;49.20;;;;;;4994971;27;95255;-52
2022/07/17 08:48:41;;;;;;;63.28;50.63;;;24.80;45.50;;;;;;5008110;27;97287;-53
2022/07/17 08:51:08;;;;;;;63.50;50.72;;;24.50;46.20;;;;;;5000396;27;95262;-48
2022/07/17 08:53:34;;;;;;;61.15;50.35;;;24.50;48.00;;;;;;5002549;27;96464;-51
2022/07/17 08:56:00;;;;;;;65.28;50.50;;;24.50;47.70;;;;;;5003401;27;96420;-49
2022/07/17 08:58:25;;;;;;;60.88;50.33;;;24.50;47.00;;;;;;4999329;27;96671;-55
2022/07/17 09:00:51;;;;;;;62.65;50.45;;;24.40;46.70;;;;;;5009949;27;95461;-51
2022/07/17 09:03:17;;;;;;;61.50;50.28;;;24.50;47.10;;;;;;5012209;27;95402;-50
2022/07/17 09:05:44;;;;;;;63.35;50.53;;;24.40;45.90;;;;;;4995307;27;96368;-49
2022/07/17 09:08:18;;;;;;;62.50;50.55;;;24.40;46.00;;;;;;5003310;27;95079;-48
2022/07/17 09:10:46;;;;;;;63.55;50.55;;;24.40;45.90;;;;;;5007869;27;98682;-54
2022/07/17 09:13:17;;;;;;;63.10;50.40;;;24.40;46.80;;;;;;5010891;27;96035;-47
2022/07/17 09:15:44;;;;;;;64.88;50.67;;;24.40;46.30;;;;;;5000542;27;96074;-51
2022/07/17 09:18:09;;;;;;;62.17;50.83;;;24.40;46.20;;;;;;4994357;27;99559;-50
2022/07/17 09:20:44;;;;;;;62.17;51.00;;;24.50;45.90;;;;;;5011604;27;95245;-49
2022/07/17 09:23:09;;;;;;;62.58;50.75;;;24.50;45.60;;;;;;5017538;27;96144;-53
2022/07/17 09:25:38;;;;;;;63.17;50.78;;;24.40;45.20;;;;;;5003412;27;98968;-54
2022/07/17 09:28:06;;;;;;;65.20;51.08;;;24.50;45.90;;;;;;5002906;27;96750;-52
2022/07/17 09:30:32;;;;;;;62.92;51.03;;;24.50;45.70;;;;;;5007899;27;96388;-48
2022/07/17 09:32:58;;;;;;;63.55;50.70;;;24.60;45.80;;;;;;4998029;27;95944;-50
2022/07/17 09:35:24;;;;;;;63.33;51.20;;;24.50;45.70;;;;;;5004881;27;97718;-48
2022/07/17 09:37:54;;;;;;;63.83;51.20;;;24.60;45.00;;;;;;4994516;27;97578;-53
2022/07/17 09:43:07;;;;;;;63.70;50.85;;;24.60;45.40;;;;;;4998638;27;97432;-50
2022/07/17 09:45:35;;;;;;;64.03;51.22;;;24.60;46.20;;;;;;4994591;27;96747;-50
2022/07/17 09:48:03;;;;;;;62.10;51.08;;;24.70;45.10;;;;;;4992516;27;96372;-49
2022/07/17 09:50:29;;;;;;;62.55;51.28;;;24.70;44.30;;;;;;5009699;27;95897;-50
2022/07/17 09:52:57;;;;;;;62.13;51.10;;;24.60;44.10;;;;;;5005274;27;97238;-50
2022/07/17 09:55:29;;;;;;;61.65;51.13;;;24.60;44.60;;;;;;4989961;27;95884;-54
2022/07/17 09:57:56;;;;;;;94.90;52.08;;;24.70;45.70;;;;;;5007312;27;96072;-52
2022/07/17 10:00:22;;;;;;;99.00;52.22;;;24.70;46.10;;;;;;5010125;27;95657;-51
2022/07/17 10:02:48;;;;;;;68.88;51.50;;;24.80;46.50;;;;;;5002538;27;96906;-56
2022/07/17 10:05:15;;;;;;;79.10;51.80;;;24.90;45.80;;;;;;5002405;27;95243;-58
2022/07/17 10:07:45;;;;;;;73.35;51.30;;;25.00;46.40;;;;;;4980035;27;100742;-55
2022/07/17 10:10:15;;;;;;;66.85;51.67;;;25.20;46.50;;;;;;4963679;27;96867;-58
2022/07/17 10:12:46;;;;;;;74.93;51.35;;;25.30;46.80;;;;;;4962295;27;100132;-57
2022/07/17 10:15:12;;;;;;;70.03;51.47;;;25.40;47.70;;;;;;4981067;27;95338;-50
2022/07/17 10:17:38;;;;;;;65.85;51.55;;;25.50;47.60;;;;;;4965786;27;96656;-55
2022/07/17 10:20:04;;;;;;;75.82;51.90;;;25.50;47.80;;;;;;4949018;27;99852;-53
2022/07/17 10:22:46;;;;;;;69.50;51.33;;;25.60;48.00;;;;;;4978142;27;99786;-57
2022/07/17 10:25:16;;;;;;;68.35;51.55;;;25.60;47.70;;;;;;4999201;27;96633;-60
2022/07/17 10:27:48;;;;;;;72.23;51.80;;;25.60;47.70;;;;;;5006127;27;95865;-60
2022/07/17 10:30:29;;;;;;;66.15;52.15;;;25.60;48.50;;;;;;4998598;27;94648;-58
2022/07/17 10:32:59;;;;;;;77.30;53.65;;;25.60;49.20;;;;;;5001243;27;96043;-58
2022/07/17 10:35:28;;;;;;;75.07;54.03;;;25.60;50.80;;;;;;4999206;27;97465;-58
2022/07/17 10:37:58;;;;;;;71.78;54.30;;;25.70;50.80;;;;;;4997834;27;97485;-59
2022/07/17 10:40:28;;;;;;;72.90;54.03;;;25.70;51.00;;;;;;4991933;27;97276;-57
2022/07/17 10:43:04;;;;;;;71.60;53.10;;;25.70;51.30;;;;;;5014697;27;95090;-58
2022/07/17 10:45:42;;;;;;;75.78;54.50;;;25.80;51.90;;;;;;5004055;27;96963;-60
2022/07/17 10:48:17;;;;;;;73.97;55.88;;;25.80;51.90;;;;;;4990137;27;99948;-59
2022/07/17 10:50:42;;;;;;;72.15;54.85;;;25.80;52.70;;;;;;5001715;27;99005;-60
2022/07/17 10:53:12;;;;;;;73.45;54.95;;;25.80;52.60;;;;;;4997058;27;99793;-60
2022/07/17 10:55:40;;;;;;;77.70;54.97;;;25.80;53.00;;;;;;5005714;27;95181;-60
2022/07/17 10:58:29;;;;;;;73.13;54.67;;;25.90;52.70;;;;;;5006815;27;95846;-61
2022/07/17 11:01:14;;;;;;;70.75;54.53;;;25.80;52.50;;;;;;5006198;27;97521;-60
2022/07/17 11:03:42;;;;;;;70.18;53.58;;;25.90;52.40;;;;;;5006458;27;97403;-61
2022/07/17 11:06:07;;;;;;;66.82;53.10;;;25.90;52.10;;;;;;5005166;27;100316;-60
2022/07/17 11:08:36;;;;;;;70.57;53.53;;;25.90;52.00;;;;;;5001790;27;97704;-60
2022/07/17 11:11:02;;;;;;;68.03;53.38;;;25.90;51.90;;;;;;5012483;27;96155;-59
2022/07/17 11:13:27;;;;;;;71.35;53.35;;;25.90;51.70;;;;;;5004314;27;95813;-59
2022/07/17 11:15:53;;;;;;;70.10;53.50;;;25.90;51.70;;;;;;5002186;27;97993;-60
2022/07/17 11:18:21;;;;;;;70.47;53.13;;;26.00;51.60;;;;;;5004506;27;95452;-60
2022/07/17 11:20:59;;;;;;;71.20;53.08;;;25.80;51.60;;;;;;5011132;27;95165;-60
2022/07/17 11:23:27;;;;;;;69.13;53.83;;;25.60;52.00;;;;;;5002305;27;98243;-60
2022/07/17 11:25:55;;;;;;;74.72;55.03;;;25.40;52.40;;;;;;5003162;27;95545;-59
2022/07/17 11:28:38;;;;;;;71.90;54.75;;;25.40;53.50;;;;;;4999199;27;98657;-60
2022/07/17 11:31:16;;;;;;;70.22;54.10;;;25.30;53.80;;;;;;5011583;27;96636;-60
2022/07/17 11:34:11;;;;;;;72.30;54.03;;;25.20;53.50;;;;;;5003232;27;96155;-57
2022/07/17 11:36:38;;;;;;;69.65;53.63;;;25.40;53.10;;;;;;4996734;27;96041;-60
2022/07/17 11:39:15;;;;;;;68.30;53.00;;;25.70;52.90;;;;;;5011338;27;95421;-60
2022/07/17 11:41:46;;;;;;;65.32;52.85;;;25.80;52.60;;;;;;5012482;27;96136;-61
2022/07/17 11:44:14;;;;;;;69.80;53.40;;;25.90;52.50;;;;;;5015596;27;96032;-60
2022/07/17 11:46:41;;;;;;;67.85;52.97;;;26.00;52.50;;;;;;5007286;27;97414;-59
2022/07/17 11:49:07;;;;;;;71.00;52.97;;;26.00;52.50;;;;;;4996514;27;96547;-59
2022/07/17 11:51:39;;;;;;;70.57;52.90;;;26.20;52.80;;;;;;5000640;27;95896;-59
2022/07/17 11:54:10;;;;;;;70.20;52.63;;;26.10;52.40;;;;;;4999709;27;97906;-59
2022/07/17 11:56:37;;;;;;;65.43;52.67;;;26.10;52.30;;;;;;5004196;27;98677;-59
2022/07/17 11:59:02;;;;;;;68.90;53.05;;;26.20;52.30;;;;;;5005206;27;96284;-59
2022/07/17 12:01:37;;;;;;;67.55;53.00;;;26.20;52.20;;;;;;5006982;27;97325;-59
2022/07/17 12:04:03;;;;;;;69.35;52.97;;;26.20;52.10;;;;;;5001866;27;97143;-59
2022/07/17 12:06:28;;;;;;;70.18;52.92;;;26.20;52.10;;;;;;4995025;27;96018;-59
2022/07/17 12:08:54;;;;;;;68.25;52.88;;;26.20;51.90;;;;;;4997899;27;95859;-51
2022/07/17 12:11:20;;;;;;;67.15;53.03;;;26.30;52.50;;;;;;5019356;27;95279;-54
2022/07/17 12:13:47;;;;;;;68.05;52.85;;;26.30;52.00;;;;;;5007614;27;98351;-54
2022/07/17 12:16:23;;;;;;;65.90;53.00;;;26.30;52.00;;;;;;5004489;27;95411;-53
2022/07/17 12:19:04;;;;;;;71.13;52.75;;;26.30;52.10;;;;;;5000925;27;96850;-56
2022/07/17 12:21:33;;;;;;;65.07;53.08;;;26.30;52.00;;;;;;5015557;27;95569;-57
2022/07/17 12:24:01;;;;;;;67.20;52.72;;;26.30;52.10;;;;;;5004507;27;95777;-51
2022/07/17 12:26:27;;;;;;;67.05;52.60;;;26.30;52.10;;;;;;4999084;27;97074;-62
2022/07/17 12:28:52;;;;;;;66.35;52.65;;;26.30;52.00;;;;;;5003330;27;95866;-59